Time;durP1;ratioP1;P1;durP2;ratioP2;P2;SDS_P1;SDS_P2;PMS_P1;PMS_P2;Temp;Humidity;BMP_temperature;BMP_pressure;BME280_temperature;BME280_humidity;BME280_pressure;Samples;Min_cycle;Max_cycle;Signal;HPM_P1;HPM_P2
2023/05/03 00:00:12;;;;;;;0.50;0.50;;;;;;;8.74;82.41;97664.97;29395;356;63009;-57
2023/05/03 00:00:43;;;;;;;0.50;0.50;;;;;;;8.76;81.90;97659.31;29395;253;63009;-57
2023/05/03 00:01:15;;;;;;;0.50;0.50;;;;;;;8.78;81.74;97667.16;29395;208;63005;-56
2023/05/03 00:01:46;;;;;;;0.50;0.50;;;;;;;8.79;81.69;97668.78;29395;271;63019;-57
2023/05/03 00:02:17;;;;;;;0.50;0.50;;;;;;;8.79;81.73;97666.09;29394;199;64009;-59
2023/05/03 00:02:50;;;;;;;0.50;0.50;;;;;;;8.81;81.63;97666.66;29395;250;63009;-58
2023/05/03 00:03:24;;;;;;;0.50;0.50;;;;;;;8.81;81.81;97666.66;29395;225;63005;-57
2023/05/03 00:03:55;;;;;;;0.50;0.50;;;;;;;8.80;82.00;97670.44;29395;255;63009;-57
2023/05/03 00:04:27;;;;;;;0.50;0.50;;;;;;;8.80;81.54;97673.12;29395;253;63012;-58
2023/05/03 00:04:59;;;;;;;0.50;0.50;;;;;;;8.78;81.55;97667.97;29395;221;63009;-58
2023/05/03 00:05:31;;;;;;;0.50;0.50;;;;;;;8.78;81.93;97673.41;29395;271;63004;-59
2023/05/03 00:06:13;;;;;;;0.50;0.50;;;;;;;8.79;81.48;97666.09;29395;212;63009;-58
2023/05/03 00:06:44;;;;;;;0.47;0.47;;;;;;;8.81;81.68;97670.16;29395;251;63004;-56
2023/05/03 00:07:15;;;;;;;0.50;0.50;;;;;;;8.83;81.50;97675.31;29395;247;63008;-57
2023/05/03 00:07:47;;;;;;;0.50;0.50;;;;;;;8.85;81.42;97675.87;29394;211;64008;-57
2023/05/03 00:08:21;;;;;;;0.50;0.50;;;;;;;8.84;81.25;97674.25;29395;237;63016;-58
2023/05/03 00:08:52;;;;;;;0.50;0.50;;;;;;;8.85;81.14;97678.56;29395;247;63005;-57
2023/05/03 00:09:24;;;;;;;0.50;0.50;;;;;;;8.85;81.38;97675.87;29395;248;63009;-57
2023/05/03 00:09:55;;;;;;;0.50;0.50;;;;;;;8.83;81.86;97669.91;29394;202;64009;-57
2023/05/03 00:10:26;;;;;;;0.50;0.50;;;;;;;8.83;81.99;97675.31;29395;232;63009;-58
2023/05/03 00:11:00;;;;;;;0.50;0.50;;;;;;;8.81;81.78;97674.75;29395;265;63009;-58
2023/05/03 00:11:33;;;;;;;2.40;2.35;;;;;;;8.81;82.33;97674.75;29395;202;63009;-57
2023/05/03 00:12:05;;;;;;;0.50;0.50;;;;;;;8.80;82.67;97670.44;29395;230;63000;-57
2023/05/03 00:12:40;;;;;;;0.50;0.50;;;;;;;8.79;82.40;97672.31;29395;213;63009;-58
2023/05/03 00:13:11;;;;;;;0.50;0.50;;;;;;;8.79;82.50;97679.62;29395;243;63009;-57
2023/05/03 00:13:42;;;;;;;0.50;0.50;;;;;;;8.80;81.79;97670.44;29395;310;63009;-57
2023/05/03 00:14:14;;;;;;;0.50;0.50;;;;;;;8.81;81.69;97672.06;29395;218;63004;-57
2023/05/03 00:14:45;;;;;;;0.50;0.50;;;;;;;8.81;81.54;97672.06;29395;261;63009;-58
2023/05/03 00:15:16;;;;;;;0.50;0.50;;;;;;;8.81;82.08;97666.66;29394;210;64008;-57
2023/05/03 00:15:47;;;;;;;0.50;0.50;;;;;;;8.79;81.95;97672.31;29395;212;63009;-58
2023/05/03 00:16:19;;;;;;;0.50;0.50;;;;;;;8.79;82.10;97674.22;29395;263;63005;-57
2023/05/03 00:16:51;;;;;;;0.50;0.50;;;;;;;8.80;81.76;97667.72;29395;251;63009;-57
2023/05/03 00:17:22;;;;;;;0.50;0.50;;;;;;;8.79;81.77;97674.22;29395;246;63005;-57
2023/05/03 00:17:54;;;;;;;0.50;0.50;;;;;;;8.78;81.97;97667.97;29395;196;63009;-57
2023/05/03 00:18:25;;;;;;;0.50;0.50;;;;;;;8.78;82.19;97669.88;29395;253;63005;-57
2023/05/03 00:18:56;;;;;;;0.50;0.50;;;;;;;8.77;82.11;97670.94;29395;253;63009;-58
2023/05/03 00:19:31;;;;;;;0.50;0.50;;;;;;;8.76;82.74;97674.72;29395;327;63004;-58
2023/05/03 00:20:07;;;;;;;0.50;0.50;;;;;;;8.74;82.66;97666.88;29395;211;63009;-57
2023/05/03 00:20:38;;;;;;;0.50;0.50;;;;;;;8.74;82.93;97669.56;29394;197;64009;-57
2023/05/03 00:21:10;;;;;;;0.50;0.50;;;;;;;8.74;82.78;97672.28;29394;246;64013;-57
2023/05/03 00:21:41;;;;;;;0.50;0.50;;;;;;;8.70;82.90;97669.28;29395;213;63004;-58
2023/05/03 00:22:12;;;;;;;0.50;0.50;;;;;;;8.69;83.00;97664.94;29395;279;63008;-57
2023/05/03 00:22:44;;;;;;;0.47;0.47;;;;;;;8.69;82.79;97673.06;29395;229;63005;-57
2023/05/03 00:23:15;;;;;;;0.50;0.50;;;;;;;8.68;82.99;97668.72;29395;202;63009;-57
2023/05/03 00:23:46;;;;;;;0.50;0.50;;;;;;;8.69;82.90;97669.53;29395;224;63005;-57
2023/05/03 00:24:18;;;;;;;0.50;0.50;;;;;;;8.69;82.98;97664.13;29395;262;63024;-57
2023/05/03 00:24:50;;;;;;;0.50;0.50;;;;;;;8.67;82.81;97669.81;29395;235;63005;-57
2023/05/03 00:25:21;;;;;;;0.50;0.50;;;;;;;8.69;83.04;97666.84;29395;218;63009;-57
2023/05/03 00:25:54;;;;;;;0.50;0.50;;;;;;;8.69;82.93;97673.06;29395;210;63005;-57
2023/05/03 00:26:27;;;;;;;0.50;0.50;;;;;;;8.67;82.99;97667.09;29394;241;64013;-57
2023/05/03 00:26:58;;;;;;;0.50;0.50;;;;;;;8.67;83.14;97667.09;29395;226;63004;-57
2023/05/03 00:27:29;;;;;;;0.50;0.50;;;;;;;8.67;82.88;97664.41;29395;273;63009;-57
2023/05/03 00:28:01;;;;;;;0.50;0.50;;;;;;;8.68;83.00;97660.63;29395;197;63004;-57
2023/05/03 00:28:32;;;;;;;0.50;0.50;;;;;;;8.68;82.74;97667.91;29394;197;64009;-59
2023/05/03 00:29:03;;;;;;;0.50;0.50;;;;;;;8.68;82.53;97668.72;29395;249;63004;-58
2023/05/03 00:29:34;;;;;;;0.50;0.50;;;;;;;8.70;82.63;97665.75;29395;268;63014;-58
2023/05/03 00:30:07;;;;;;;0.50;0.50;;;;;;;8.70;82.52;97666.56;29395;208;63005;-57
2023/05/03 00:30:38;;;;;;;0.50;0.50;;;;;;;8.71;82.80;97667.41;29395;255;63009;-57
2023/05/03 00:31:10;;;;;;;0.50;0.50;;;;;;;8.69;82.56;97670.34;29394;268;64005;-58
2023/05/03 00:31:43;;;;;;;0.50;0.50;;;;;;;8.68;82.81;97674.13;29394;233;64031;-57
2023/05/03 00:32:14;;;;;;;0.50;0.50;;;;;;;8.67;83.09;97664.41;29395;241;63005;-57
2023/05/03 00:32:46;;;;;;;0.50;0.50;;;;;;;8.66;82.94;97668.16;29395;222;63005;-56
2023/05/03 00:33:18;;;;;;;0.50;0.50;;;;;;;8.63;83.55;97666.03;29395;222;63005;-58
2023/05/03 00:33:49;;;;;;;0.50;0.50;;;;;;;8.61;83.26;97664.66;29395;253;63009;-57
2023/05/03 00:34:20;;;;;;;0.50;0.50;;;;;;;8.60;83.62;97666.53;29395;210;63004;-58
2023/05/03 00:34:55;;;;;;;0.50;0.50;;;;;;;8.58;83.30;97665.97;29395;259;63009;-57
2023/05/03 00:35:27;;;;;;;0.50;0.50;;;;;;;8.60;83.14;97666.53;29395;224;63004;-58
2023/05/03 00:35:59;;;;;;;0.50;0.50;;;;;;;8.60;83.67;97671.94;29395;204;63009;-58
2023/05/03 00:36:31;;;;;;;0.50;0.50;;;;;;;8.59;83.48;97662.19;29395;234;63004;-57
2023/05/03 00:37:03;;;;;;;0.50;0.50;;;;;;;8.57;83.39;97666.25;29394;222;64013;-58
2023/05/03 00:37:36;;;;;;;0.50;0.50;;;;;;;8.57;83.44;97667.06;29395;211;64009;-57
2023/05/03 00:38:07;;;;;;;0.50;0.50;;;;;;;8.57;83.72;97661.66;29396;205;63018;-57
2023/05/03 00:38:40;;;;;;;0.50;0.50;;;;;;;8.57;83.81;97666.25;29395;211;64005;-58
2023/05/03 00:39:11;;;;;;;0.50;0.50;;;;;;;8.55;83.99;97662.97;29396;209;63009;-57
2023/05/03 00:39:42;;;;;;;0.50;0.50;;;;;;;8.53;84.12;97665.12;29396;202;63005;-58
2023/05/03 00:40:18;;;;;;;0.50;0.50;;;;;;;8.51;84.04;97668.09;29396;257;63009;-57
2023/05/03 00:40:55;;;;;;;0.50;0.50;;;;;;;8.51;84.02;97668.09;29396;252;63005;-58
2023/05/03 00:41:26;;;;;;;0.50;0.50;;;;;;;8.49;84.29;97675.66;29396;265;63009;-57
2023/05/03 00:41:58;;;;;;;0.50;0.50;;;;;;;8.47;84.13;97664.28;29396;256;63004;-57
2023/05/03 00:42:32;;;;;;;0.50;0.50;;;;;;;8.45;84.14;97658.31;29396;202;63009;-58
2023/05/03 00:43:04;;;;;;;0.50;0.50;;;;;;;8.44;84.57;97672.91;29395;239;64009;-57
2023/05/03 00:43:36;;;;;;;0.50;0.50;;;;;;;8.43;84.50;97671.28;29396;210;63009;-57
2023/05/03 00:44:07;;;;;;;0.50;0.50;;;;;;;8.43;84.70;97671.28;29396;215;63004;-57
2023/05/03 00:44:39;;;;;;;0.50;0.50;;;;;;;8.42;84.74;97669.66;29396;220;63008;-58
2023/05/03 00:45:10;;;;;;;0.50;0.50;;;;;;;8.41;85.17;97673.44;29395;236;64009;-57
2023/05/03 00:45:44;;;;;;;0.50;0.50;;;;;;;8.39;85.27;97664.75;29396;215;63008;-58
2023/05/03 00:46:15;;;;;;;0.50;0.50;;;;;;;8.37;84.85;97661.50;29396;220;63005;-58
2023/05/03 00:46:47;;;;;;;0.50;0.50;;;;;;;8.37;84.92;97669.59;29396;204;63009;-57
2023/05/03 00:47:18;;;;;;;0.50;0.50;;;;;;;8.35;85.04;97663.63;29396;242;63005;-58
2023/05/03 00:47:49;;;;;;;0.50;0.50;;;;;;;8.35;85.02;97663.63;29396;247;63009;-57
2023/05/03 00:48:21;;;;;;;0.50;0.50;;;;;;;8.34;85.15;97662.00;29396;207;63005;-58
2023/05/03 00:48:52;;;;;;;0.50;0.50;;;;;;;8.34;85.03;97664.72;29396;202;63009;-57
2023/05/03 00:49:24;;;;;;;0.50;0.50;;;;;;;8.35;84.84;97663.63;29396;220;63000;-57
2023/05/03 00:49:56;;;;;;;0.50;0.50;;;;;;;8.35;84.86;97658.22;29396;207;63022;-59
2023/05/03 00:50:29;;;;;;;0.50;0.50;;;;;;;8.35;85.01;97663.63;29395;205;64009;-58
2023/05/03 00:51:05;;;;;;;0.50;0.50;;;;;;;8.36;85.11;97659.88;29396;202;63015;-58
2023/05/03 00:51:36;;;;;;;0.50;0.50;;;;;;;8.35;85.13;97656.34;29396;202;63004;-57
2023/05/03 00:52:08;;;;;;;0.50;0.50;;;;;;;8.35;85.92;97659.03;29396;226;63008;-58
2023/05/03 00:52:40;;;;;;;0.50;0.50;;;;;;;8.33;85.81;97654.97;29396;223;63005;-58
2023/05/03 00:53:12;;;;;;;0.50;0.50;;;;;;;8.31;85.31;97651.72;29396;207;63009;-58
2023/05/03 00:53:44;;;;;;;0.50;0.50;;;;;;;8.31;85.40;97654.41;29396;246;63005;-57
2023/05/03 00:54:16;;;;;;;0.50;0.50;;;;;;;8.28;85.53;97653.03;29396;235;63009;-58
2023/05/03 00:54:48;;;;;;;0.50;0.50;;;;;;;8.25;85.52;97650.03;29396;200;63005;-58
2023/05/03 00:55:20;;;;;;;0.50;0.50;;;;;;;8.22;85.80;97653.25;29396;225;63009;-57
2023/05/03 00:55:54;;;;;;;0.50;0.50;;;;;;;8.19;85.92;97653.78;29395;206;64009;-58
2023/05/03 00:56:25;;;;;;;0.50;0.50;;;;;;;8.19;85.83;97648.38;29396;262;63016;-57
2023/05/03 00:56:57;;;;;;;0.50;0.50;;;;;;;8.17;86.03;97650.50;29396;216;63004;-58
2023/05/03 00:57:29;;;;;;;0.50;0.50;;;;;;;8.17;85.84;97645.09;29396;279;63015;-57
2023/05/03 00:58:00;;;;;;;0.50;0.50;;;;;;;8.17;85.68;97647.81;29396;202;63004;-57
2023/05/03 00:58:35;;;;;;;0.50;0.50;;;;;;;8.14;85.66;97646.44;29396;209;63009;-58
2023/05/03 00:59:07;;;;;;;0.50;0.50;;;;;;;8.10;85.98;97655.31;29396;323;63004;-57
2023/05/03 00:59:39;;;;;;;0.50;0.50;;;;;;;8.08;85.89;97652.87;29396;218;63008;-57
2023/05/03 01:00:12;;;;;;;0.50;0.50;;;;;;;8.08;85.65;97650.97;29396;254;63005;-58
2023/05/03 01:00:43;;;;;;;0.50;0.50;;;;;;;8.04;86.16;97647.16;29396;240;63009;-59
2023/05/03 01:01:16;;;;;;;0.50;0.50;;;;;;;8.03;86.50;97647.41;29395;245;64009;-57
2023/05/03 01:01:49;;;;;;;0.50;0.50;;;;;;;8.01;86.56;97646.84;29396;226;63009;-58
2023/05/03 01:02:21;;;;;;;0.50;0.50;;;;;;;8.00;86.54;97647.94;29396;216;63005;-58
2023/05/03 01:02:53;;;;;;;0.50;0.50;;;;;;;7.99;86.63;97649.00;29396;262;63009;-59
2023/05/03 01:03:24;;;;;;;0.50;0.50;;;;;;;7.98;86.77;97648.19;29396;211;63005;-58
2023/05/03 01:03:57;;;;;;;0.50;0.50;;;;;;;7.96;87.03;97655.75;29396;276;63009;-58
2023/05/03 01:04:29;;;;;;;0.50;0.50;;;;;;;7.94;86.94;97643.59;29396;252;63004;-59
2023/05/03 01:05:02;;;;;;;0.50;0.50;;;;;;;7.91;87.55;97647.59;29396;230;63009;-58
2023/05/03 01:06:01;;;;;;;0.50;0.50;;;;;;;7.88;88.19;97641.91;29396;197;63004;-57
2023/05/03 01:07:10;;;;;;;0.50;0.50;;;;;;;7.83;88.31;97653.47;29395;220;64013;-58
2023/05/03 01:08:06;;;;;;;0.50;0.50;;;;;;;7.79;88.13;97655.06;29395;202;64009;-57
2023/05/03 01:08:59;;;;;;;0.50;0.50;;;;;;;7.75;88.59;97648.53;29396;226;63009;-59
2023/05/03 01:09:38;;;;;;;0.50;0.50;;;;;;;7.72;89.03;97651.75;29396;233;63005;-58
2023/05/03 01:10:45;;;;;;;0.50;0.50;;;;;;;7.72;89.30;97649.03;29396;203;63009;-58
2023/05/03 01:11:44;;;;;;;0.50;0.50;;;;;;;7.70;88.88;97651.19;29396;215;63019;-58
2023/05/03 01:12:47;;;;;;;0.50;0.50;;;;;;;7.66;89.17;97644.66;29396;253;63009;-57
2023/05/03 01:13:43;;;;;;;0.50;0.50;;;;;;;7.64;89.64;97644.09;29395;210;64009;-58
2023/05/03 01:14:52;;;;;;;0.50;0.50;;;;;;;7.62;89.63;97643.56;29396;216;63008;-57
2023/05/03 01:16:03;;;;;;;0.50;0.50;;;;;;;7.60;89.86;97645.69;29396;197;63005;-57
2023/05/03 01:16:43;;;;;;;0.50;0.50;;;;;;;7.61;89.43;97641.94;29396;210;63009;-58
2023/05/03 01:17:14;;;;;;;0.50;0.50;;;;;;;7.62;89.22;97643.56;29396;306;63005;-58
2023/05/03 01:17:53;;;;;;;0.50;0.50;;;;;;;7.62;89.99;97643.56;29396;202;63009;-58
2023/05/03 01:18:33;;;;;;;0.50;0.50;;;;;;;7.60;89.99;97651.09;29395;247;64009;-58
2023/05/03 01:19:18;;;;;;;0.50;0.50;;;;;;;7.59;90.69;97652.19;29418;261;63009;-58
2023/05/03 01:20:07;;;;;;;0.50;0.50;;;;;;;7.55;90.42;97648.34;29395;221;64009;-58
2023/05/03 01:20:43;;;;;;;0.50;0.50;;;;;;;7.55;90.59;97649.16;29396;236;63009;-58
2023/05/03 01:21:21;;;;;;;0.50;0.50;;;;;;;7.55;90.60;97648.34;29397;224;63004;-58
2023/05/03 01:22:02;;;;;;;0.50;0.50;;;;;;;7.57;90.28;97646.22;29397;224;63009;-57
2023/05/03 01:22:41;;;;;;;;;;;;;;;7.60;90.69;97645.69;29997;982;6000;-57
2023/05/03 01:23:42;;;;;;;0.50;0.50;;;;;;;7.55;90.46;97632.16;29401;298;63017;-57
2023/05/03 01:24:21;;;;;;;0.60;0.60;;;;;;;7.62;90.04;97643.56;29419;308;63009;-58
2023/05/03 01:25:21;;;;;;;0.57;0.57;;;;;;;7.63;90.46;97645.16;29395;208;64009;-58
2023/05/03 01:25:53;;;;;;;0.50;0.50;;;;;;;7.63;90.94;97645.16;29396;202;64013;-58
2023/05/03 01:26:26;;;;;;;0.50;0.50;;;;;;;7.63;91.01;97643.28;29397;216;63004;-57
2023/05/03 01:26:58;;;;;;;0.50;0.50;;;;;;;7.59;90.50;97642.19;29397;233;63009;-58
2023/05/03 01:27:29;;;;;;;0.50;0.50;;;;;;;7.56;90.53;97641.88;29397;221;63000;-58
2023/05/03 01:28:00;;;;;;;0.60;0.60;;;;;;;7.53;90.57;97643.19;29397;262;63009;-57
2023/05/03 01:28:32;;;;;;;0.50;0.50;;;;;;;7.53;90.86;97639.69;29397;196;63004;-57
2023/05/03 01:29:04;;;;;;;0.50;0.50;;;;;;;7.53;90.53;97639.69;29397;242;63008;-57
2023/05/03 01:29:35;;;;;;;0.50;0.50;;;;;;;7.52;91.01;97640.75;29397;214;63010;-58
2023/05/03 01:30:09;;;;;;;0.50;0.50;;;;;;;7.51;90.97;97637.25;29397;245;63009;-60
2023/05/03 01:30:42;;;;;;;0.50;0.50;;;;;;;7.52;91.25;97638.06;29397;248;63014;-57
2023/05/03 01:31:37;;;;;;;0.50;0.50;;;;;;;7.50;91.09;97638.31;29396;200;64013;-58
2023/05/03 01:32:18;;;;;;;0.68;0.68;;;;;;;7.48;91.25;97636.94;29397;214;63005;-57
2023/05/03 01:33:09;;;;;;;0.60;0.60;;;;;;;7.47;90.90;97636.13;29419;273;63009;-58
2023/05/03 01:34:00;;;;;;;0.50;0.50;;;;;;;7.48;90.40;97631.53;29419;198;63004;-57
2023/05/03 01:34:42;;;;;;;0.50;0.50;;;;;;;7.46;90.77;97628.25;29397;279;63018;-58
2023/05/03 01:35:49;;;;;;;0.50;0.50;;;;;;;7.40;91.15;97625.50;29396;206;63004;-59
2023/05/03 01:36:31;;;;;;;0.50;0.50;;;;;;;7.43;91.01;97623.37;29395;239;64013;-58
2023/05/03 01:37:04;;;;;;;0.50;0.50;;;;;;;7.44;90.66;97628.53;29397;222;63013;-58
2023/05/03 01:37:36;;;;;;;0.50;0.50;;;;;;;7.43;91.33;97628.78;29396;248;63009;-58
2023/05/03 01:38:09;;;;;;;0.50;0.50;;;;;;;7.43;91.35;97628.78;29396;209;63017;-58
2023/05/03 01:38:41;;;;;;;0.50;0.50;;;;;;;7.43;90.90;97623.37;29396;245;63024;-57
2023/05/03 01:39:26;;;;;;;0.50;0.50;;;;;;;7.42;90.72;97627.97;29396;245;63011;-58
2023/05/03 01:40:07;;;;;;;0.50;0.50;;;;;;;7.42;91.51;97632.53;29396;237;63009;-57
2023/05/03 01:40:47;;;;;;;0.50;0.50;;;;;;;7.40;91.60;97630.91;29396;274;63005;-58
2023/05/03 01:41:22;;;;;;;0.50;0.50;;;;;;;7.40;91.67;97630.91;29398;198;63013;-57
2023/05/03 01:41:55;;;;;;;0.50;0.50;;;;;;;7.39;91.71;97629.28;29395;207;64009;-58
2023/05/03 01:42:28;;;;;;;0.50;0.50;;;;;;;7.38;91.98;97632.22;29396;293;63009;-57
2023/05/03 01:43:01;;;;;;;0.50;0.50;;;;;;;7.36;92.30;97629.78;29396;262;63004;-58
2023/05/03 01:43:35;;;;;;;0.50;0.50;;;;;;;7.35;91.83;97622.75;29396;215;63009;-59
2023/05/03 01:44:09;;;;;;;0.50;0.50;;;;;;;7.37;92.16;97636.00;29396;236;63004;-58
2023/05/03 01:44:42;;;;;;;0.50;0.50;;;;;;;7.37;91.86;97625.19;29396;222;63009;-57
2023/05/03 01:45:14;;;;;;;0.50;0.50;;;;;;;7.38;91.91;97626.84;29396;203;63005;-58
2023/05/03 01:45:47;;;;;;;0.50;0.50;;;;;;;7.38;91.75;97626.84;29396;255;63009;-57
2023/05/03 01:46:18;;;;;;;0.50;0.50;;;;;;;7.37;92.44;97626.00;29396;233;63005;-58
2023/05/03 01:46:49;;;;;;;0.50;0.50;;;;;;;7.37;92.37;97626.00;29396;208;63005;-58
2023/05/03 01:47:21;;;;;;;0.50;0.50;;;;;;;7.37;92.62;97627.91;29395;199;64009;-58
2023/05/03 01:47:56;;;;;;;0.50;0.50;;;;;;;7.37;92.20;97625.19;29396;202;63009;-58
2023/05/03 01:48:28;;;;;;;0.50;0.50;;;;;;;7.38;92.45;97626.84;29396;229;63005;-57
2023/05/03 01:49:02;;;;;;;0.60;0.60;;;;;;;7.38;92.42;97624.13;29396;384;63009;-59
2023/05/03 01:49:34;;;;;;;0.60;0.60;;;;;;;7.37;92.16;97628.72;29396;198;63004;-59
2023/05/03 01:50:06;;;;;;;0.60;0.60;;;;;;;7.31;92.23;97627.03;29396;234;63023;-57
2023/05/03 01:50:38;;;;;;;0.50;0.50;;;;;;;7.28;92.35;97630.22;29396;278;63004;-59
2023/05/03 01:51:09;;;;;;;0.50;0.50;;;;;;;7.26;92.83;97628.88;29396;205;63008;-57
2023/05/03 01:51:40;;;;;;;0.50;0.50;;;;;;;7.26;92.95;97624.31;29396;250;63004;-59
2023/05/03 01:52:12;;;;;;;0.50;0.50;;;;;;;7.27;92.57;97627.81;29396;218;63017;-58
2023/05/03 01:52:44;;;;;;;0.50;0.50;;;;;;;7.26;92.62;97629.69;29395;197;64009;-58
2023/05/03 01:53:16;;;;;;;0.50;0.50;;;;;;;7.25;92.58;97630.75;29396;202;63009;-57
2023/05/03 01:53:49;;;;;;;0.50;0.50;;;;;;;7.24;92.52;97629.13;29396;202;63005;-58
2023/05/03 01:54:21;;;;;;;0.50;0.50;;;;;;;7.22;92.51;97631.28;29396;208;63026;-58
2023/05/03 01:54:52;;;;;;;0.50;0.50;;;;;;;7.22;92.34;97623.16;29396;220;63005;-58
2023/05/03 01:55:24;;;;;;;0.50;0.50;;;;;;;7.22;91.88;97623.16;29396;262;63009;-57
2023/05/03 01:55:55;;;;;;;0.50;0.50;;;;;;;7.24;91.99;97631.84;29395;372;64005;-58
2023/05/03 01:56:26;;;;;;;0.47;0.47;;;;;;;7.25;91.64;97627.25;29396;208;63009;-58
2023/05/03 01:56:58;;;;;;;0.50;0.50;;;;;;;7.26;91.48;97624.31;29396;197;63004;-58
2023/05/03 01:57:29;;;;;;;0.50;0.50;;;;;;;7.27;91.21;97625.94;29396;272;63009;-58
2023/05/03 01:58:00;;;;;;;0.60;0.60;;;;;;;7.25;91.43;97625.38;29395;204;64009;-59
2023/05/03 01:58:31;;;;;;;0.50;0.50;;;;;;;7.22;91.80;97628.56;29396;248;63009;-58
2023/05/03 01:59:03;;;;;;;0.50;0.50;;;;;;;7.19;92.08;97629.06;29395;196;64008;-57
2023/05/03 01:59:35;;;;;;;0.50;0.50;;;;;;;7.18;92.14;97626.62;29396;254;63009;-58
2023/05/03 02:00:08;;;;;;;0.50;0.50;;;;;;;7.15;92.55;97617.16;29396;214;63001;-58
2023/05/03 02:00:40;;;;;;;0.50;0.50;;;;;;;7.14;92.28;97623.63;29396;202;63009;-57
2023/05/03 02:01:11;;;;;;;0.60;0.60;;;;;;;7.13;92.51;97624.69;29396;223;63005;-59
2023/05/03 02:01:42;;;;;;;0.50;0.50;;;;;;;7.11;93.22;97620.59;29397;236;63009;-58
2023/05/03 02:02:13;;;;;;;0.52;0.52;;;;;;;7.07;93.34;97621.09;29396;256;63005;-58
2023/05/03 02:02:44;;;;;;;0.50;0.50;;;;;;;7.02;93.26;97622.94;29396;243;63009;-58
2023/05/03 02:03:16;;;;;;;0.50;0.50;;;;;;;6.98;93.54;97621.78;29396;283;63005;-58
2023/05/03 02:03:47;;;;;;;0.60;0.60;;;;;;;6.95;93.85;97619.59;29395;231;64013;-58
2023/05/03 02:04:18;;;;;;;0.60;0.60;;;;;;;6.95;93.85;97622.28;29396;256;63004;-58
2023/05/03 02:04:49;;;;;;;0.60;0.60;;;;;;;6.94;93.65;97618.78;29395;202;64013;-58
2023/05/03 02:05:21;;;;;;;0.60;0.60;;;;;;;6.93;93.58;97616.37;29396;198;63004;-58
2023/05/03 02:05:52;;;;;;;0.50;0.50;;;;;;;6.92;93.76;97620.12;29396;256;63009;-58
2023/05/03 02:06:24;;;;;;;0.50;0.50;;;;;;;6.90;94.17;97616.88;29396;206;63004;-58
2023/05/03 02:06:56;;;;;;;0.50;0.50;;;;;;;6.90;94.21;97624.97;29396;311;63008;-59
2023/05/03 02:07:27;;;;;;;0.50;0.50;;;;;;;6.88;94.38;97622.50;29396;220;63005;-59
2023/05/03 02:07:58;;;;;;;0.50;0.50;;;;;;;6.87;94.61;97620.88;29396;198;63009;-58
2023/05/03 02:08:29;;;;;;;0.50;0.50;;;;;;;6.87;94.44;97620.88;29396;250;63005;-58
2023/05/03 02:09:01;;;;;;;0.50;0.50;;;;;;;6.88;94.46;97625.22;29396;290;63009;-58
2023/05/03 02:09:32;;;;;;;0.50;0.50;;;;;;;6.90;94.21;97624.97;29396;199;63005;-58
2023/05/03 02:10:05;;;;;;;0.50;0.50;;;;;;;6.89;93.79;97626.03;29395;274;64013;-58
2023/05/03 02:10:36;;;;;;;0.50;0.50;;;;;;;6.86;94.06;97623.81;29396;214;63012;-58
2023/05/03 02:11:07;;;;;;;0.50;0.50;;;;;;;6.87;94.17;97628.16;29396;196;63009;-58
2023/05/03 02:11:38;;;;;;;0.50;0.50;;;;;;;6.85;94.37;97617.63;29396;212;63004;-58
2023/05/03 02:12:10;;;;;;;0.50;0.50;;;;;;;6.85;94.51;97628.41;29396;218;63009;-58
2023/05/03 02:12:42;;;;;;;0.50;0.50;;;;;;;6.85;94.49;97627.59;29396;220;63004;-58
2023/05/03 02:13:15;;;;;;;0.50;0.50;;;;;;;6.86;93.90;97626.53;29396;259;63008;-58
2023/05/03 02:13:49;;;;;;;0.50;0.50;;;;;;;6.87;94.00;97633.56;29396;203;63004;-58
2023/05/03 02:14:20;;;;;;;0.50;0.50;;;;;;;6.87;93.82;97626.28;29396;197;63008;-58
2023/05/03 02:14:52;;;;;;;0.50;0.50;;;;;;;6.87;93.78;97625.47;29396;220;64009;-58
2023/05/03 02:15:23;;;;;;;0.50;0.50;;;;;;;6.85;93.76;97633.81;29396;225;63009;-58
2023/05/03 02:15:54;;;;;;;0.50;0.50;;;;;;;6.84;93.82;97628.66;29396;258;63005;-59
2023/05/03 02:16:26;;;;;;;0.50;0.50;;;;;;;6.83;94.20;97632.41;29396;224;63009;-58
2023/05/03 02:16:59;;;;;;;0.50;0.50;;;;;;;6.79;94.26;97628.59;29396;204;63005;-58
2023/05/03 02:17:30;;;;;;;0.50;0.50;;;;;;;6.75;94.42;97635.53;29396;196;63009;-59
2023/05/03 02:18:02;;;;;;;0.50;0.50;;;;;;;6.73;94.65;97630.41;29396;202;63000;-58
2023/05/03 02:18:34;;;;;;;0.50;0.50;;;;;;;6.73;94.96;97628.50;29396;273;63009;-59
2023/05/03 02:19:06;;;;;;;0.60;0.60;;;;;;;6.71;94.62;97633.34;29396;214;63007;-58
2023/05/03 02:19:38;;;;;;;0.50;0.50;;;;;;;6.71;94.99;97629.84;29395;282;64013;-58
2023/05/03 02:20:10;;;;;;;0.50;0.50;;;;;;;6.67;94.84;97626.81;29396;203;63004;-59
2023/05/03 02:20:45;;;;;;;0.60;0.60;;;;;;;6.65;95.09;97630.81;29396;204;63008;-58
2023/05/03 02:21:16;;;;;;;0.50;0.50;;;;;;;6.66;94.75;97630.56;29396;234;63004;-58
2023/05/03 02:21:48;;;;;;;0.50;0.50;;;;;;;6.69;94.87;97623.87;29396;230;63009;-58
2023/05/03 02:22:19;;;;;;;0.50;0.50;;;;;;;6.70;94.69;97626.31;29396;237;63005;-57
2023/05/03 02:22:50;;;;;;;0.50;0.50;;;;;;;6.72;94.80;97624.19;29396;197;63009;-58
2023/05/03 02:23:21;;;;;;;0.50;0.50;;;;;;;6.71;94.79;97633.34;29396;351;63005;-58
2023/05/03 02:23:53;;;;;;;0.50;0.50;;;;;;;6.68;95.50;97627.62;29396;197;63009;-58
2023/05/03 02:24:24;;;;;;;0.50;0.50;;;;;;;6.66;95.43;97625.19;29397;214;63005;-58
2023/05/03 02:24:56;;;;;;;0.50;0.50;;;;;;;6.61;95.22;97627.81;29395;211;64013;-60
2023/05/03 02:25:27;;;;;;;0.50;0.50;;;;;;;6.59;95.46;97632.63;29397;210;63005;-58
2023/05/03 02:25:58;;;;;;;0.50;0.50;;;;;;;6.59;95.85;97634.50;29397;239;63009;-57
2023/05/03 02:26:29;;;;;;;0.50;0.50;;;;;;;6.59;95.63;97629.94;29397;334;63004;-58
2023/05/03 02:27:03;;;;;;;0.50;0.50;;;;;;;6.59;95.72;97635.31;29397;210;63009;-58
2023/05/03 02:27:35;;;;;;;0.50;0.50;;;;;;;6.56;95.71;97625.06;29395;212;63004;-58
2023/05/03 02:28:06;;;;;;;0.50;0.50;;;;;;;6.54;95.85;97629.06;29395;212;63008;-59
2023/05/03 02:28:37;;;;;;;0.50;0.50;;;;;;;6.55;95.83;97628.81;29395;218;63004;-58
2023/05/03 02:29:08;;;;;;;0.50;0.50;;;;;;;6.56;96.09;97625.06;29395;290;63009;-58
2023/05/03 02:29:40;;;;;;;0.50;0.50;;;;;;;6.57;95.62;97629.41;29395;225;63005;-58
2023/05/03 02:30:12;;;;;;;0.50;0.50;;;;;;;6.58;95.69;97628.34;29394;298;64014;-59
2023/05/03 02:30:43;;;;;;;0.50;0.50;;;;;;;6.58;95.57;97625.63;29395;265;63000;-58
2023/05/03 02:31:14;;;;;;;0.50;0.50;;;;;;;6.57;95.47;97621.31;29395;215;63009;-58
2023/05/03 02:31:46;;;;;;;0.60;0.60;;;;;;;6.55;95.56;97633.41;29393;229;64009;-58
2023/05/03 02:32:17;;;;;;;0.50;0.50;;;;;;;6.54;95.76;97629.87;29395;227;63023;-59
2023/05/03 02:32:48;;;;;;;0.50;0.50;;;;;;;6.52;95.71;97634.72;29395;219;63000;-58
2023/05/03 02:33:20;;;;;;;0.50;0.50;;;;;;;6.52;96.14;97629.31;29395;202;63017;-58
2023/05/03 02:33:53;;;;;;;0.50;0.50;;;;;;;6.52;96.25;97632.03;29395;234;63014;-58
2023/05/03 02:34:26;;;;;;;0.50;0.50;;;;;;;6.49;96.36;97624.44;29395;216;63009;-59
2023/05/03 02:34:58;;;;;;;0.50;0.50;;;;;;;6.49;96.58;97629.81;29395;251;63004;-58
2023/05/03 02:35:30;;;;;;;0.50;0.50;;;;;;;6.49;96.69;97624.44;29395;203;63012;-58
2023/05/03 02:36:02;;;;;;;0.50;0.50;;;;;;;6.52;96.44;97620.41;29395;225;63004;-58
2023/05/03 02:36:33;;;;;;;0.50;0.50;;;;;;;6.53;96.57;97624.75;29395;233;63009;-58
2023/05/03 02:37:04;;;;;;;0.50;0.50;;;;;;;6.55;96.06;97623.44;29393;220;64009;-58
2023/05/03 02:37:35;;;;;;;0.50;0.50;;;;;;;6.57;95.83;97626.69;29395;224;63009;-58
2023/05/03 02:38:07;;;;;;;0.50;0.50;;;;;;;6.57;95.74;97626.69;29395;234;63005;-59
2023/05/03 02:38:38;;;;;;;0.50;0.50;;;;;;;6.57;96.04;97626.69;29395;236;63009;-59
2023/05/03 02:39:09;;;;;;;0.50;0.50;;;;;;;6.57;95.79;97626.69;29395;211;63005;-59
2023/05/03 02:39:41;;;;;;;0.50;0.50;;;;;;;6.59;95.65;97627.25;29395;213;63009;-58
2023/05/03 02:40:12;;;;;;;0.60;0.60;;;;;;;6.60;95.42;97634.25;29395;229;63005;-58
2023/05/03 02:40:43;;;;;;;0.50;0.50;;;;;;;6.63;95.35;97630.25;29395;218;63009;-58
2023/05/03 02:41:14;;;;;;;0.50;0.50;;;;;;;6.62;95.14;97626.75;29395;224;63004;-58
2023/05/03 02:41:46;;;;;;;0.50;0.50;;;;;;;6.64;94.82;97624.63;29395;222;63009;-57
2023/05/03 02:42:18;;;;;;;0.50;0.50;;;;;;;6.65;94.89;97617.34;29393;228;64009;-58
2023/05/03 02:42:50;;;;;;;0.50;0.50;;;;;;;6.65;94.56;97620.84;29393;209;64013;-58
2023/05/03 02:43:22;;;;;;;0.60;0.60;;;;;;;6.66;94.67;97621.66;29395;267;63004;-58
2023/05/03 02:43:53;;;;;;;0.50;0.50;;;;;;;6.64;94.95;97621.91;29395;219;63008;-58
2023/05/03 02:44:24;;;;;;;0.50;0.50;;;;;;;6.64;94.76;97624.63;29395;227;63005;-59